Time;durP1;ratioP1;P1;durP2;ratioP2;P2;SDS_P1;SDS_P2;PMS_P1;PMS_P2;Temp;Humidity;BMP_temperature;BMP_pressure;BME280_temperature;BME280_humidity;BME280_pressure;Samples;Min_cycle;Max_cycle;Signal;HPM_P1;HPM_P2
2021/08/18 00:01:18;;;;;;;5.50;0.70;;;;;;;15.06;100.00;100154.44;5012673;28;20487;-75
2021/08/18 00:04:21;;;;;;;2.38;0.55;;;;;;;15.09;100.00;100159.03;5013126;28;20061;-75
2021/08/18 00:07:24;;;;;;;3.35;0.85;;;;;;;15.06;100.00;100148.84;5013159;28;20052;-75
2021/08/18 00:10:29;;;;;;;3.72;0.75;;;;;;;15.10;100.00;100157.00;5012869;28;20108;-75
2021/08/18 00:13:32;;;;;;;4.05;1.25;;;;;;;15.14;100.00;100155.53;5012698;28;20057;-75
2021/08/18 00:16:36;;;;;;;3.85;0.85;;;;;;;15.14;100.00;100155.53;5012597;28;20080;-75
2021/08/18 00:19:40;;;;;;;3.15;0.57;;;;;;;15.10;100.00;100149.38;5012632;28;20224;-75
2021/08/18 00:22:43;;;;;;;4.75;0.82;;;;;;;15.09;100.00;100150.63;5012665;28;20088;-75
2021/08/18 00:25:46;;;;;;;2.30;0.75;;;;;;;15.13;100.00;100142.78;5012816;28;20088;-74
2021/08/18 00:28:49;;;;;;;2.22;0.70;;;;;;;15.09;100.00;100142.22;5012904;28;20198;-74
2021/08/18 00:31:52;;;;;;;0.85;0.35;;;;;;;15.09;100.00;100122.56;5012976;28;20057;-75
2021/08/18 00:34:55;;;;;;;1.90;0.32;;;;;;;15.14;100.00;100110.63;5013036;28;20411;-75
2021/08/18 00:37:59;;;;;;;2.67;0.70;;;;;;;15.23;100.00;100111.69;5012870;28;20115;-75
2021/08/18 00:41:02;;;;;;;2.38;0.60;;;;;;;15.15;100.00;100112.19;5012045;28;20057;-76
2021/08/18 00:44:06;;;;;;;1.63;0.75;;;;;;;15.13;100.00;100114.72;5006734;28;20068;-75
2021/08/18 00:47:09;;;;;;;3.50;1.10;;;;;;;15.14;100.00;100121.06;5007502;28;20056;-74
2021/08/18 00:50:15;;;;;;;4.28;1.15;;;;;;;15.13;100.00;100120.34;4993404;28;20204;-73
2021/08/18 00:53:18;;;;;;;1.52;0.68;;;;;;;15.17;100.00;100120.09;4993427;28;20177;-75
2021/08/18 00:56:21;;;;;;;6.55;0.77;;;;;;;15.23;100.00;100114.50;4993598;28;20117;-76
2021/08/18 00:59:27;;;;;;;1.65;0.70;;;;;;;15.18;100.00;100113.97;4987190;28;20553;-78
2021/08/18 01:02:31;;;;;;;5.68;0.93;;;;;;;15.19;100.00;100118.31;4984579;28;20496;-76
2021/08/18 01:05:34;;;;;;;1.60;0.50;;;;;;;15.20;100.00;100107.88;4994313;28;20069;-76
2021/08/18 01:08:37;;;;;;;2.35;0.57;;;;;;;15.18;100.00;100105.56;4993944;28;20104;-74
2021/08/18 01:11:43;;;;;;;2.40;0.88;;;;;;;15.20;100.00;100105.06;4994048;28;20432;-74
2021/08/18 01:14:46;;;;;;;2.53;0.73;;;;;;;15.18;100.00;100099.19;4993749;28;20105;-76
2021/08/18 01:17:54;;;;;;;2.17;1.08;;;;;;;15.16;100.00;100102.47;4993643;28;20042;-78
2021/08/18 01:20:57;;;;;;;2.88;0.60;;;;;;;15.26;100.00;100096.66;4993531;28;20049;-77
2021/08/18 01:24:03;;;;;;;2.88;0.60;;;;;;;15.27;100.00;100087.75;4993376;28;20114;-74
2021/08/18 01:27:08;;;;;;;1.83;0.73;;;;;;;15.22;100.00;100082.88;4993736;28;20057;-75
2021/08/18 01:30:11;;;;;;;3.10;1.00;;;;;;;15.23;100.00;100072.41;4993165;28;20053;-75
2021/08/18 01:33:16;;;;;;;7.47;1.25;;;;;;;15.18;100.00;100088.72;4993199;28;20049;-75
2021/08/18 01:36:20;;;;;;;2.58;1.08;;;;;;;15.25;100.00;100092.31;4993590;28;20054;-74
2021/08/18 01:39:23;;;;;;;3.38;1.17;;;;;;;15.25;100.00;100081.09;4993377;28;20057;-75
2021/08/18 01:42:26;;;;;;;7.00;1.63;;;;;;;15.18;100.00;100083.09;4993043;28;20057;-75
2021/08/18 01:45:43;;;;;;;4.50;1.55;;;;;;;15.31;100.00;100073.50;4992956;28;20041;-78
2021/08/18 01:48:47;;;;;;;7.15;2.03;;;;;;;15.22;100.00;100070.91;4992573;28;20048;-74
2021/08/18 01:51:50;;;;;;;5.47;2.17;;;;;;;15.20;100.00;100074.94;4993333;28;20046;-75
2021/08/18 01:54:52;;;;;;;3.67;1.05;;;;;;;15.07;100.00;100076.69;4993420;28;20045;-75
2021/08/18 01:57:57;;;;;;;2.78;0.80;;;;;;;15.15;100.00;100078.53;4993855;28;20136;-75
2021/08/18 02:01:06;;;;;;;1.92;0.40;;;;;;;15.10;100.00;100070.81;4993305;28;20069;-74
2021/08/18 02:04:08;;;;;;;1.83;0.82;;;;;;;15.02;100.00;100086.59;4976782;28;20042;-76
2021/08/18 02:07:11;;;;;;;1.55;0.85;;;;;;;15.06;100.00;100070.31;4976787;28;20050;-76
2021/08/18 02:10:17;;;;;;;1.65;0.80;;;;;;;14.97;100.00;100072.53;4977778;28;20123;-76
2021/08/18 02:13:20;;;;;;;2.63;0.75;;;;;;;15.02;100.00;100081.00;4977538;28;20539;-76
2021/08/18 02:16:22;;;;;;;0.85;0.50;;;;;;;14.90;100.00;100076.56;4977307;28;20046;-76
2021/08/18 02:19:25;;;;;;;4.85;1.55;;;;;;;14.88;100.00;100069.91;4977460;28;20560;-77
2021/08/18 02:22:28;;;;;;;3.20;0.68;;;;;;;14.84;100.00;100067.34;4977031;28;20058;-77
2021/08/18 02:25:31;;;;;;;0.57;0.50;;;;;;;14.81;100.00;100065.53;4978057;28;20053;-77
2021/08/18 02:28:35;;;;;;;4.65;0.40;;;;;;;14.86;100.00;100070.41;4977502;28;20097;-76
2021/08/18 02:31:37;;;;;;;1.77;0.50;;;;;;;14.78;100.00;100072.16;4977160;28;20505;-76
2021/08/18 02:34:40;;;;;;;2.45;0.90;;;;;;;14.74;100.00;100071.63;4977223;28;20565;-77
2021/08/18 02:37:46;;;;;;;1.15;0.40;;;;;;;14.79;100.00;100073.69;4976622;28;20105;-76
2021/08/18 02:40:49;;;;;;;2.85;0.38;;;;;;;14.74;100.00;100080.03;4976496;28;20222;-77
2021/08/18 02:43:52;;;;;;;4.43;0.68;;;;;;;14.71;100.00;100081.00;4976365;28;20049;-77
2021/08/18 02:46:55;;;;;;;2.15;0.55;;;;;;;14.72;100.00;100079.75;4976863;28;20162;-76
2021/08/18 02:49:58;;;;;;;3.15;0.77;;;;;;;14.65;100.00;100069.00;4976520;28;20049;-77
2021/08/18 02:53:01;;;;;;;2.78;0.75;;;;;;;14.68;100.00;100065.22;4976729;28;20085;-76
2021/08/18 02:56:04;;;;;;;3.92;1.23;;;;;;;14.68;100.00;100056.81;4976522;28;20053;-77
2021/08/18 02:59:07;;;;;;;2.90;0.80;;;;;;;14.64;100.00;100070.25;4976836;28;20070;-77
2021/08/18 03:02:10;;;;;;;2.58;1.38;;;;;;;14.60;100.00;100064.13;4976252;28;20093;-77
2021/08/18 03:05:13;;;;;;;2.25;0.80;;;;;;;14.59;100.00;100054.19;4992416;28;20049;-77
2021/08/18 03:08:16;;;;;;;5.35;1.15;;;;;;;14.65;100.00;100054.97;4996288;28;20100;-77
2021/08/18 03:11:19;;;;;;;4.22;1.33;;;;;;;14.60;100.00;100043.72;4996360;28;20110;-77
2021/08/18 03:14:22;;;;;;;2.20;0.50;;;;;;;14.57;100.00;100039.91;4995719;28;20133;-77
2021/08/18 03:17:25;;;;;;;2.05;0.57;;;;;;;14.55;100.00;100042.44;4995240;28;20101;-77
2021/08/18 03:20:28;;;;;;;5.15;1.35;;;;;;;14.58;100.00;100035.03;4995760;28;20170;-77
2021/08/18 03:23:31;;;;;;;3.65;0.65;;;;;;;14.67;100.00;100040.47;4995783;28;20425;-77
2021/08/18 03:26:34;;;;;;;11.45;1.45;;;;;;;14.62;100.00;100036.34;4995957;28;20122;-77
2021/08/18 03:29:37;;;;;;;7.57;1.63;;;;;;;14.64;100.00;100042.22;4995871;28;20660;-78
2021/08/18 03:32:40;;;;;;;4.65;1.65;;;;;;;14.73;100.00;100035.66;4995655;28;20101;-76
2021/08/18 03:35:43;;;;;;;6.85;1.45;;;;;;;14.54;100.00;100035.28;4996143;28;20057;-77
2021/08/18 03:38:45;;;;;;;4.32;0.98;;;;;;;14.58;100.00;100032.25;4995734;28;20100;-76
2021/08/18 03:41:48;;;;;;;5.35;1.25;;;;;;;14.63;100.00;100042.72;4996141;28;20096;-76
2021/08/18 03:44:51;;;;;;;3.30;0.65;;;;;;;14.61;100.00;100040.44;4995776;28;20551;-77
2021/08/18 03:47:54;;;;;;;5.30;0.93;;;;;;;14.65;100.00;100046.56;4995322;28;20058;-77
2021/08/18 03:50:57;;;;;;;4.32;1.20;;;;;;;14.65;100.00;100048.59;4995240;28;20133;-77
2021/08/18 03:54:00;;;;;;;1.48;0.95;;;;;;;14.59;100.00;100042.97;4995247;28;20563;-77
2021/08/18 03:57:03;;;;;;;1.95;1.02;;;;;;;14.48;100.00;100044.91;4995644;28;20134;-77
2021/08/18 04:00:09;;;;;;;3.45;1.38;;;;;;;14.50;100.00;100050.78;4995418;28;20061;-77
2021/08/18 04:03:11;;;;;;;1.27;0.77;;;;;;;14.53;100.00;100047.75;4995159;28;20056;-77
2021/08/18 04:06:14;;;;;;;2.92;1.00;;;;;;;14.43;100.00;100049.19;4995097;28;20062;-77
2021/08/18 04:09:17;;;;;;;2.53;0.63;;;;;;;14.34;100.00;100049.38;4995421;28;20049;-77
2021/08/18 04:12:20;;;;;;;4.05;1.00;;;;;;;14.32;100.00;100046.31;4995184;28;20053;-77
2021/08/18 04:15:29;;;;;;;1.65;0.90;;;;;;;14.18;100.00;100047.97;4991723;28;20137;-77
2021/08/18 04:18:32;;;;;;;2.95;0.52;;;;;;;14.17;100.00;100043.59;4994947;28;20053;-77
2021/08/18 04:21:35;;;;;;;3.85;0.93;;;;;;;14.12;100.00;100054.78;4975718;28;20050;-77
2021/08/18 04:24:38;;;;;;;0.95;0.57;;;;;;;14.09;100.00;100055.75;4974305;28;20489;-78
2021/08/18 04:27:42;;;;;;;2.38;0.52;;;;;;;13.97;100.00;100043.66;4975247;28;20133;-77
2021/08/18 04:30:45;;;;;;;1.05;0.38;;;;;;;13.90;100.00;100048.94;4975327;28;20054;-77
2021/08/18 04:33:47;;;;;;;1.40;0.65;;;;;;;13.91;100.00;100042.84;4975505;28;20082;-77
2021/08/18 04:36:50;;;;;;;1.02;0.50;;;;;;;13.81;100.00;100041.47;4975018;28;20149;-77
2021/08/18 04:39:53;;;;;;;2.90;0.52;;;;;;;13.81;100.00;100040.72;4974457;28;20138;-77
2021/08/18 04:42:56;;;;;;;1.15;0.20;;;;;;;13.78;100.00;100038.88;4974475;28;20512;-77
2021/08/18 04:45:58;;;;;;;10.25;0.95;;;;;;;13.72;100.00;100038.06;4975305;28;20054;-78
2021/08/18 04:49:01;;;;;;;5.72;0.70;;;;;;;13.66;100.00;100035.22;4974924;28;20057;-78
2021/08/18 04:52:05;;;;;;;0.85;0.40;;;;;;;13.65;100.00;100028.84;4974867;28;20089;-78
2021/08/18 04:55:08;;;;;;;0.30;0.30;;;;;;;13.48;100.00;100025.09;4975247;28;20520;-77
2021/08/18 04:58:11;;;;;;;3.38;0.40;;;;;;;13.48;100.00;100035.50;4974877;28;20050;-77
2021/08/18 05:01:14;;;;;;;1.83;0.50;;;;;;;13.44;100.00;100035.72;4974801;28;20062;-77
2021/08/18 05:04:16;;;;;;;0.47;0.47;;;;;;;13.43;100.00;100039.00;4975058;28;20054;-77
2021/08/18 05:07:19;;;;;;;11.75;0.68;;;;;;;13.38;100.00;100032.06;4974505;28;20421;-77
2021/08/18 05:10:22;;;;;;;2.13;1.05;;;;;;;13.36;100.00;100029.00;4974900;28;20385;-77
2021/08/18 05:13:25;;;;;;;5.75;0.75;;;;;;;13.38;100.00;100026.47;4974412;28;20053;-76
2021/08/18 05:16:28;;;;;;;7.30;1.35;;;;;;;13.35;100.00;100016.28;4974492;28;20543;-75
2021/08/18 05:19:30;;;;;;;0.93;0.63;;;;;;;13.37;100.00;100019.34;4974435;28;20053;-75
2021/08/18 05:22:34;;;;;;;1.10;0.30;;;;;;;13.36;100.00;100023.41;4974295;28;20209;-75
2021/08/18 05:25:37;;;;;;;0.60;0.43;;;;;;;13.35;100.00;100021.88;4974473;28;20105;-74
2021/08/18 05:28:40;;;;;;;9.18;0.35;;;;;;;13.31;100.00;100026.91;4974700;28;20082;-75
2021/08/18 05:31:42;;;;;;;2.50;0.22;;;;;;;13.32;100.00;100014.47;4974685;28;20524;-76
2021/08/18 05:34:45;;;;;;;1.85;0.65;;;;;;;13.38;100.00;100009.69;4974300;28;20081;-75
2021/08/18 05:37:48;;;;;;;0.60;0.43;;;;;;;13.46;100.00;100010.06;4974184;28;20137;-75
2021/08/18 05:40:51;;;;;;;1.52;0.30;;;;;;;13.57;100.00;100008.16;4974194;28;20065;-75
2021/08/18 05:43:54;;;;;;;1.75;0.63;;;;;;;13.65;100.00;100000.84;4974251;28;20050;-74
2021/08/18 05:46:56;;;;;;;0.90;0.30;;;;;;;13.74;100.00;99993.56;4973944;28;20053;-75
2021/08/18 05:50:00;;;;;;;3.65;0.30;;;;;;;13.84;100.00;99994.94;4973938;28;20168;-75
2021/08/18 05:53:03;;;;;;;3.58;0.73;;;;;;;13.83;100.00;99993.38;4935495;29;20479;-75
2021/08/18 05:56:06;;;;;;;0.75;0.43;;;;;;;13.89;100.00;99992.19;4935481;29;20047;-75
2021/08/18 05:59:09;;;;;;;0.77;0.38;;;;;;;13.88;100.00;99992.69;4935593;29;20051;-75
2021/08/18 06:02:11;;;;;;;3.15;0.77;;;;;;;13.99;100.00;99990.00;4935341;29;20079;-75
2021/08/18 06:05:15;;;;;;;2.42;0.60;;;;;;;13.88;100.00;99984.28;4935610;29;20066;-75
2021/08/18 06:08:17;;;;;;;0.88;0.38;;;;;;;13.89;100.00;99989.38;4935554;29;20126;-74
2021/08/18 06:11:20;;;;;;;1.67;0.80;;;;;;;13.89;100.00;99991.41;4935635;29;20508;-74
2021/08/18 06:14:24;;;;;;;1.60;0.40;;;;;;;13.86;100.00;99993.16;4935400;29;20055;-74
2021/08/18 06:17:27;;;;;;;1.85;0.20;;;;;;;13.76;100.00;99982.63;4935020;29;20095;-74
2021/08/18 06:20:30;;;;;;;10.77;0.93;;;;;;;13.78;100.00;99986.47;4935204;29;20069;-74
2021/08/18 06:23:34;;;;;;;4.03;0.35;;;;;;;13.78;100.00;99994.88;4935348;29;20054;-74
2021/08/18 06:26:37;;;;;;;0.85;0.55;;;;;;;13.74;100.00;99996.34;4935262;29;20103;-75
2021/08/18 06:29:40;;;;;;;3.17;0.95;;;;;;;13.78;100.00;99996.88;4934730;29;20102;-75
2021/08/18 06:32:43;;;;;;;2.72;0.90;;;;;;;13.81;100.00;100001.50;4934526;29;20059;-75
2021/08/18 06:35:46;;;;;;;1.17;0.38;;;;;;;13.68;100.00;99994.28;4934941;29;20054;-75
2021/08/18 06:38:49;;;;;;;1.65;1.08;;;;;;;13.61;100.00;100002.31;4935257;29;20079;-75
2021/08/18 06:41:52;;;;;;;2.10;0.60;;;;;;;13.64;100.00;99999.31;4935008;29;20058;-75
2021/08/18 06:44:55;;;;;;;2.13;0.45;;;;;;;13.63;100.00;99992.19;4934902;29;20134;-75
2021/08/18 06:47:58;;;;;;;2.83;1.17;;;;;;;13.48;100.00;99991.50;4935764;29;20115;-75
2021/08/18 06:51:01;;;;;;;3.95;1.10;;;;;;;13.53;100.00;99995.63;4954441;28;20042;-75
2021/08/18 06:54:04;;;;;;;2.35;0.60;;;;;;;13.46;100.00;100002.44;4976962;28;20443;-75
2021/08/18 06:57:07;;;;;;;0.98;0.40;;;;;;;13.43;100.00;100000.59;4990034;28;20041;-75
2021/08/18 07:00:10;;;;;;;3.75;1.23;;;;;;;13.43;100.00;99999.84;4996525;28;20053;-75
2021/08/18 07:03:13;;;;;;;3.35;1.10;;;;;;;13.43;100.00;100006.19;4996194;28;20085;-75
2021/08/18 07:06:16;;;;;;;1.25;0.43;;;;;;;13.51;100.00;100000.97;4996451;28;20061;-75
2021/08/18 07:09:19;;;;;;;8.00;1.02;;;;;;;13.44;100.00;100002.16;4996091;28;20080;-75
2021/08/18 07:12:22;;;;;;;1.40;0.55;;;;;;;13.47;100.00;99995.56;4996094;28;20053;-74
2021/08/18 07:15:25;;;;;;;0.63;0.55;;;;;;;13.48;100.00;99997.09;4996035;28;20049;-75
2021/08/18 07:18:28;;;;;;;0.82;0.30;;;;;;;13.55;100.00;99999.47;4996262;28;20400;-75
2021/08/18 07:21:33;;;;;;;1.33;0.60;;;;;;;13.67;100.00;99998.31;4995813;28;20065;-75
2021/08/18 07:24:37;;;;;;;1.83;0.55;;;;;;;13.86;100.00;100001.56;4995715;28;20081;-75
2021/08/18 07:27:39;;;;;;;0.35;0.35;;;;;;;14.22;100.00;99991.69;4995827;28;20503;-75
2021/08/18 07:30:42;;;;;;;12.00;0.75;;;;;;;14.32;100.00;99985.44;4996179;28;20108;-76
2021/08/18 07:33:45;;;;;;;8.55;0.47;;;;;;;14.44;100.00;99986.31;4995623;28;20049;-75
2021/08/18 07:36:48;;;;;;;1.67;0.88;;;;;;;14.48;100.00;99981.22;4995449;28;20523;-75
2021/08/18 07:39:51;;;;;;;9.52;1.33;;;;;;;14.48;100.00;99981.22;4995510;28;20385;-75
2021/08/18 07:42:56;;;;;;;2.95;0.80;;;;;;;14.57;100.00;99983.84;4995390;28;20407;-74
2021/08/18 07:45:59;;;;;;;2.97;1.08;;;;;;;14.64;100.00;99986.16;4995999;28;20073;-75
2021/08/18 07:49:02;;;;;;;5.85;1.00;;;;;;;14.56;100.00;99982.28;4995645;28;20053;-75
2021/08/18 07:52:06;;;;;;;2.15;1.17;;;;;;;14.63;100.00;99976.22;4990841;28;20154;-75
2021/08/18 07:55:09;;;;;;;3.22;1.02;;;;;;;14.90;100.00;99977.66;4995257;28;20109;-76
2021/08/18 07:58:12;;;;;;;3.97;1.17;;;;;;;14.96;100.00;99976.44;4995253;28;20108;-75
2021/08/18 08:01:15;;;;;;;4.75;1.30;;;;;;;15.12;100.00;99967.31;4994495;28;20064;-76
2021/08/18 08:04:18;;;;;;;3.78;0.93;;;;;;;15.32;100.00;99974.00;4995333;28;20073;-75
2021/08/18 08:07:20;;;;;;;3.67;1.67;;;;;;;15.48;100.00;99965.69;4995041;28;20049;-75
2021/08/18 08:10:23;;;;;;;6.22;1.23;;;;;;;15.59;100.00;99970.53;4995440;28;20102;-75
2021/08/18 08:13:26;;;;;;;7.00;1.20;;;;;;;15.43;100.00;99969.22;4994177;28;20084;-76
2021/08/18 08:16:29;;;;;;;3.83;0.93;;;;;;;15.33;100.00;99976.31;4993780;28;20142;-76
2021/08/18 08:19:33;;;;;;;4.43;1.38;;;;;;;15.36;100.00;99982.94;4990463;28;20105;-75
2021/08/18 08:22:37;;;;;;;3.97;1.55;;;;;;;15.42;100.00;99989.34;4994093;28;20056;-75
2021/08/18 08:25:40;;;;;;;1.40;0.60;;;;;;;15.42;100.00;99978.13;4994574;28;20057;-75
2021/08/18 08:28:43;;;;;;;2.33;0.65;;;;;;;15.36;100.00;99991.34;4991663;28;20057;-75
2021/08/18 08:31:46;;;;;;;1.58;0.63;;;;;;;15.22;100.00;99990.31;4993787;28;20061;-75
2021/08/18 08:34:49;;;;;;;1.17;0.50;;;;;;;15.33;100.00;99992.38;4994671;28;20072;-78
2021/08/18 08:37:53;;;;;;;0.75;0.40;;;;;;;15.53;100.00;99983.78;4994497;28;20050;-75
2021/08/18 08:40:57;;;;;;;1.30;0.45;;;;;;;15.58;100.00;99980.22;4994481;28;20554;-75
2021/08/18 08:44:00;;;;;;;0.38;0.22;;;;;;;15.72;100.00;99982.06;4994350;28;20049;-75
2021/08/18 08:47:03;;;;;;;1.20;0.35;;;;;;;15.78;100.00;99977.97;4994087;28;20053;-75
2021/08/18 08:50:10;;;;;;;1.00;0.80;;;;;;;15.87;100.00;99979.78;4994044;28;20121;-77
2021/08/18 08:53:13;;;;;;;1.50;0.57;;;;;;;16.06;100.00;99980.81;4994058;28;20045;-77
2021/08/18 08:56:16;;;;;;;2.80;1.02;;;;;;;16.21;100.00;99970.09;4994268;28;20057;-77
2021/08/18 08:59:19;;;;;;;3.60;0.85;;;;;;;16.24;100.00;99971.84;4994384;28;20057;-77
2021/08/18 09:02:22;;;;;;;2.60;0.88;;;;;;;16.32;100.00;99975.69;4994109;28;20562;-77
2021/08/18 09:05:27;;;;;;;2.95;0.85;;;;;;;16.64;100.00;99967.75;4993898;28;20563;-77
2021/08/18 09:08:30;;;;;;;4.95;1.20;;;;;;;16.96;100.00;99968.16;4994021;28;20053;-77
2021/08/18 09:11:33;;;;;;;4.53;1.20;;;;;;;17.30;100.00;99969.59;4993099;28;20081;-77
2021/08/18 09:14:37;;;;;;;2.97;0.60;;;;;;;17.36;100.00;99964.69;4994199;28;20405;-77
2021/08/18 09:17:41;;;;;;;2.42;1.27;;;;;;;17.02;100.00;99958.41;4994163;28;20057;-77
2021/08/18 09:20:44;;;;;;;4.43;1.05;;;;;;;16.60;100.00;99959.59;4993073;28;20101;-77
2021/08/18 09:23:46;;;;;;;2.95;0.73;;;;;;;16.40;100.00;99953.44;4993720;28;20380;-77
2021/08/18 09:26:53;;;;;;;2.58;1.35;;;;;;;16.36;100.00;99945.28;4994023;28;20150;-76
2021/08/18 09:29:56;;;;;;;2.35;1.35;;;;;;;16.29;100.00;99945.81;4994541;28;20053;-76
2021/08/18 09:33:07;;;;;;;3.72;0.73;;;;;;;16.65;100.00;99949.63;4993843;28;20054;-76
2021/08/18 09:36:22;;;;;;;1.27;0.83;;;;;;;17.02;100.00;99940.78;4993351;28;20097;-77
2021/08/18 09:39:26;;;;;;;1.30;0.82;;;;;;;17.00;100.00;99937.72;4992284;28;20271;-77
2021/08/18 09:42:31;;;;;;;1.30;1.08;;;;;;;17.14;100.00;99933.81;4986180;28;20182;-78
2021/08/18 09:45:37;;;;;;;6.78;1.67;;;;;;;16.98;100.00;99935.41;4992702;28;20512;-77
2021/08/18 09:48:44;;;;;;;2.63;1.13;;;;;;;16.62;100.00;99931.72;4991877;28;20077;-76
2021/08/18 09:51:58;;;;;;;2.83;1.02;;;;;;;16.52;100.00;99944.50;4992433;28;20141;-79
2021/08/18 09:55:03;;;;;;;3.10;1.33;;;;;;;16.13;100.00;99943.78;4993747;28;20089;-78
2021/08/18 09:58:18;;;;;;;2.13;1.50;;;;;;;16.10;100.00;99947.59;4993972;28;20114;-76
2021/08/18 10:01:21;;;;;;;2.65;1.17;;;;;;;16.11;100.00;99946.34;4993620;28;20095;-76
2021/08/18 10:04:25;;;;;;;3.42;1.80;;;;;;;16.13;100.00;99926.16;4993251;28;20149;-77
2021/08/18 10:07:29;;;;;;;3.30;1.23;;;;;;;16.14;100.00;99934.06;4993212;28;20408;-76
2021/08/18 10:10:32;;;;;;;3.00;1.42;;;;;;;16.36;100.00;99931.22;4993418;28;20080;-77
2021/08/18 10:13:34;;;;;;;1.92;1.17;;;;;;;16.62;100.00;99942.19;4992858;28;20085;-77
2021/08/18 10:16:38;;;;;;;2.03;0.85;;;;;;;16.95;100.00;99924.44;4994368;28;20049;-77
2021/08/18 10:19:41;;;;;;;2.67;0.98;;;;;;;17.38;100.00;99925.50;4993377;28;20077;-78
2021/08/18 10:22:44;;;;;;;4.60;1.20;;;;;;;17.47;100.00;99925.22;4993510;28;20057;-78
2021/08/18 10:25:49;;;;;;;2.17;0.93;;;;;;;17.45;100.00;99927.78;4996917;28;20049;-77
2021/08/18 10:29:05;;;;;;;1.35;0.57;;;;;;;17.59;100.00;99934.34;4997100;28;20053;-79
2021/08/18 10:32:10;;;;;;;3.03;0.85;;;;;;;17.53;100.00;99923.13;4997139;28;20424;-77
2021/08/18 10:35:41;;;;;;;6.00;1.88;;;;;;;17.57;100.00;99937.69;4996885;28;20061;-77
2021/08/18 10:38:44;;;;;;;3.72;1.23;;;;;;;17.59;100.00;99934.34;4997007;28;20093;-77
2021/08/18 10:42:00;;;;;;;7.75;3.05;;;;;;;17.68;100.00;99937.63;4996561;28;20050;-77
2021/08/18 10:45:23;;;;;;;5.90;1.35;;;;;;;17.79;100.00;99934.75;4996467;28;20049;-77
2021/08/18 10:48:55;;;;;;;4.07;1.23;;;;;;;17.86;100.00;99931.38;4996989;28;20116;-77
2021/08/18 10:51:58;;;;;;;2.70;1.33;;;;;;;17.86;100.00;99937.00;4996435;28;20061;-78
2021/08/18 10:55:01;;;;;;;1.63;0.73;;;;;;;18.14;100.00;99936.78;4996564;28;20065;-76
2021/08/18 10:58:05;;;;;;;2.78;1.60;;;;;;;17.79;100.00;99946.00;4995896;28;20463;-75
2021/08/18 11:01:40;;;;;;;2.42;0.55;;;;;;;17.53;100.00;99928.00;4995165;28;20050;-75
2021/08/18 11:04:49;;;;;;;2.00;0.85;;;;;;;17.19;100.00;99922.56;4995011;28;20405;-75
2021/08/18 11:08:09;;;;;;;2.00;0.95;;;;;;;17.11;100.00;99932.03;4995457;28;20101;-75
2021/08/18 11:11:14;;;;;;;4.75;1.15;;;;;;;17.07;100.00;99943.56;4995115;28;20046;-75
2021/08/18 11:14:34;;;;;;;2.45;0.88;;;;;;;16.93;100.00;99955.16;4990943;28;20052;-74
2021/08/18 11:17:40;;;;;;;4.47;2.00;;;;;;;16.96;100.00;99956.91;4992942;28;20448;-75
2021/08/18 11:20:47;;;;;;;1.92;0.80;;;;;;;16.94;100.00;99956.66;4992680;28;20411;-76
2021/08/18 11:23:53;;;;;;;2.60;0.98;;;;;;;16.87;100.00;99969.22;4995508;28;20053;-75
2021/08/18 11:26:56;;;;;;;3.15;0.80;;;;;;;17.10;100.00;99964.28;4988964;28;20057;-75
2021/08/18 11:30:00;;;;;;;2.60;1.35;;;;;;;17.18;100.00;99954.00;4994500;28;20543;-75
2021/08/18 11:33:20;;;;;;;4.18;1.25;;;;;;;17.65;100.00;99955.56;4993710;28;20096;-75
2021/08/18 11:36:24;;;;;;;6.47;1.25;;;;;;;18.04;100.00;99944.03;4995636;28;20107;-76
2021/08/18 11:39:27;;;;;;;3.63;0.85;;;;;;;18.04;100.00;99944.78;4995808;28;20045;-75
2021/08/18 11:42:30;;;;;;;4.50;1.17;;;;;;;17.70;100.00;99956.81;4995426;28;20519;-75
2021/08/18 11:45:38;;;;;;;2.53;0.55;;;;;;;17.45;100.00;99947.50;4995893;28;20135;-75
2021/08/18 11:48:41;;;;;;;2.97;1.02;;;;;;;17.31;100.00;99938.09;4995844;28;20524;-75
2021/08/18 11:51:47;;;;;;;6.90;1.35;;;;;;;17.20;100.00;99943.00;4995010;28;20081;-76
2021/08/18 11:54:51;;;;;;;6.13;2.00;;;;;;;17.06;100.00;99947.69;4995415;28;20137;-75
2021/08/18 11:58:04;;;;;;;2.80;1.58;;;;;;;16.84;100.00;99947.75;4994592;28;20108;-75
2021/08/18 12:01:08;;;;;;;5.97;1.70;;;;;;;16.87;100.00;99955.16;4994756;28;20088;-75
2021/08/18 12:04:11;;;;;;;2.97;1.67;;;;;;;16.84;100.00;99949.81;4995408;28;20085;-75
2021/08/18 12:07:17;;;;;;;2.53;1.20;;;;;;;16.79;100.00;99947.75;4995349;28;20085;-74
2021/08/18 12:10:23;;;;;;;4.13;1.25;;;;;;;16.79;100.00;99953.38;4976349;28;20058;-75
2021/08/18 12:13:44;;;;;;;3.70;1.67;;;;;;;16.79;100.00;99947.75;4975335;28;20133;-72
2021/08/18 12:16:58;;;;;;;2.05;1.73;;;;;;;16.58;100.00;99945.28;4976276;28;20503;-75
2021/08/18 12:20:01;;;;;;;5.80;1.95;;;;;;;16.51;100.00;99948.63;4975568;28;20096;-75
2021/08/18 12:23:04;;;;;;;2.53;1.90;;;;;;;16.55;100.00;99942.72;4975806;28;20138;-74
2021/08/18 12:26:48;;;;;;;12.55;2.55;;;;;;;16.57;100.00;99952.16;4975417;28;20122;-76
2021/08/18 12:30:00;;;;;;;5.28;1.38;;;;;;;16.48;100.00;99949.59;4920328;28;20502;-75
2021/08/18 12:33:18;;;;;;;4.50;2.17;;;;;;;16.44;100.00;99954.72;4975443;28;20062;-75
2021/08/18 12:36:28;;;;;;;3.90;1.65;;;;;;;16.40;100.00;99954.22;4975031;28;20050;-74
2021/08/18 12:39:35;;;;;;;3.55;1.38;;;;;;;16.41;100.00;99950.16;4975213;28;20193;-75
2021/08/18 12:42:43;;;;;;;4.13;1.58;;;;;;;16.43;100.00;99950.41;4974872;28;20070;-75
2021/08/18 12:45:48;;;;;;;3.92;1.13;;;;;;;16.88;100.00;99951.06;4974229;28;20142;-75
2021/08/18 12:48:51;;;;;;;3.50;1.52;;;;;;;17.20;100.00;99948.63;4975328;28;20050;-76
2021/08/18 12:51:59;;;;;;;2.72;1.05;;;;;;;17.16;100.00;99939.69;4974736;28;20054;-76
2021/08/18 12:55:03;;;;;;;6.20;1.83;;;;;;;17.15;100.00;99938.19;4985417;28;20468;-75
2021/08/18 12:58:21;;;;;;;5.20;1.75;;;;;;;16.98;100.00;99945.94;4975037;28;20065;-76
2021/08/18 13:01:24;;;;;;;2.95;1.30;;;;;;;16.77;100.00;99947.50;4977295;28;20077;-76
2021/08/18 13:04:27;;;;;;;3.95;1.77;;;;;;;16.57;100.00;99940.16;4993555;28;20512;-76
2021/08/18 13:07:30;;;;;;;5.03;1.85;;;;;;;16.55;100.00;99940.69;4993882;28;20054;-76
2021/08/18 13:10:33;;;;;;;9.10;3.17;;;;;;;16.42;100.00;99945.25;4993317;28;20041;-76
2021/08/18 13:13:36;;;;;;;9.73;3.90;;;;;;;16.12;100.00;99944.28;4993656;28;20447;-76
2021/08/18 13:16:39;;;;;;;12.77;4.28;;;;;;;16.22;100.00;99937.88;4993418;28;20073;-74
2021/08/18 13:19:42;;;;;;;8.60;3.55;;;;;;;16.27;100.00;99939.94;4993692;28;20089;-76
2021/08/18 13:22:45;;;;;;;9.43;3.85;;;;;;;16.27;100.00;99939.94;4993332;28;20397;-76
2021/08/18 13:25:48;;;;;;;6.00;2.72;;;;;;;16.34;100.00;99933.78;4993710;28;20461;-75
2021/08/18 13:28:52;;;;;;;4.47;2.90;;;;;;;16.26;100.00;99926.41;4993617;28;20081;-76
2021/08/18 13:31:56;;;;;;;7.25;2.85;;;;;;;16.30;100.00;99932.53;4993497;28;20049;-75
2021/08/18 13:34:59;;;;;;;8.07;3.45;;;;;;;16.29;100.00;99936.59;4993928;28;20045;-75
2021/08/18 13:38:02;;;;;;;5.53;3.17;;;;;;;16.37;100.00;99924.31;4993506;28;20550;-75
2021/08/18 13:41:05;;;;;;;3.83;2.03;;;;;;;16.61;100.00;99926.63;4993392;28;20050;-75
2021/08/18 13:44:09;;;;;;;3.13;1.33;;;;;;;16.94;100.00;99922.91;4993002;28;20098;-76
2021/08/18 13:47:12;;;;;;;4.05;2.00;;;;;;;16.99;100.00;99924.94;4993438;28;20092;-76
2021/08/18 13:50:15;;;;;;;2.05;1.33;;;;;;;16.75;100.00;99924.78;4992878;28;20499;-75
2021/08/18 13:53:18;;;;;;;1.92;0.82;;;;;;;16.64;100.00;99917.91;4993488;28;20049;-76
2021/08/18 13:56:21;;;;;;;1.90;0.55;;;;;;;16.56;100.00;99922.53;4993593;28;20464;-76
2021/08/18 13:59:25;;;;;;;3.10;1.08;;;;;;;16.45;100.00;99913.31;4985555;28;20597;-77
2021/08/18 14:02:28;;;;;;;4.72;2.30;;;;;;;16.43;100.00;99922.28;4953619;28;20154;-75
2021/08/18 14:05:31;;;;;;;4.25;1.67;;;;;;;16.42;100.00;99920.75;4957796;28;20053;-74
2021/08/18 14:08:41;;;;;;;3.47;1.38;;;;;;;16.46;100.00;99924.06;4956368;28;20732;-75
2021/08/18 14:11:46;;;;;;;4.88;1.73;;;;;;;16.47;100.00;99925.59;4956256;28;20651;-75
2021/08/18 14:14:49;;;;;;;3.50;1.75;;;;;;;16.34;100.00;99918.97;4959688;28;20865;-75